createdAt,value
2023-03-08T00:02:29.426Z,4.85
2023-03-08T00:05:17.255Z,4.61
2023-03-08T00:08:05.135Z,4.82
2023-03-08T00:10:52.822Z,4.76
2023-03-08T00:13:41.031Z,4.56
2023-03-08T00:16:28.749Z,4.62
2023-03-08T00:19:16.640Z,4.66
2023-03-08T00:22:04.228Z,4.63
2023-03-08T00:24:53.503Z,4.49
2023-03-08T00:27:41.212Z,4.50
2023-03-08T00:30:29.206Z,4.48
2023-03-08T00:33:16.826Z,4.50
2023-03-08T00:36:16.286Z,4.52
2023-03-08T00:39:04.047Z,4.48
2023-03-08T00:41:51.684Z,4.36
2023-03-08T00:44:39.358Z,4.08
2023-03-08T00:47:27.068Z,4.28
2023-03-08T00:50:17.159Z,4.33
2023-03-08T00:53:06.835Z,4.32
2023-03-08T00:55:57.229Z,4.32
2023-03-08T00:58:45.771Z,4.45
2023-03-08T01:01:33.675Z,4.38
2023-03-08T01:04:21.316Z,4.42
2023-03-08T01:07:09.008Z,4.22
2023-03-08T01:09:59.078Z,4.36
2023-03-08T01:12:46.933Z,4.35
2023-03-08T01:15:38.721Z,4.19
2023-03-08T01:18:26.589Z,4.09
2023-03-08T01:21:14.519Z,4.11
2023-03-08T01:24:02.435Z,4.07
2023-03-08T01:26:50.148Z,4.08
2023-03-08T01:29:39.275Z,4.06
2023-03-08T01:32:27.410Z,3.95
2023-03-08T01:35:15.336Z,3.95
2023-03-08T01:38:03.009Z,3.87
2023-03-08T01:40:56.787Z,3.76
2023-03-08T01:43:45.032Z,3.80
2023-03-08T01:46:37.077Z,3.61
2023-03-08T01:49:35.720Z,3.83
2023-03-08T01:52:34.490Z,3.73
2023-03-08T01:55:22.638Z,3.74
2023-03-08T01:58:10.733Z,3.66
2023-03-08T02:00:58.797Z,3.58
2023-03-08T02:03:47.509Z,3.36
2023-03-08T02:06:37.272Z,3.71
2023-03-08T02:09:25.170Z,3.71
2023-03-08T02:12:14.052Z,3.72
2023-03-08T02:15:03.982Z,3.64
2023-03-08T02:17:51.843Z,3.70
2023-03-08T02:20:42.071Z,3.78
2023-03-08T02:23:29.809Z,3.77
2023-03-08T02:26:18.933Z,3.53
2023-03-08T02:29:06.782Z,3.47
2023-03-08T02:31:54.420Z,3.48
2023-03-08T02:34:42.699Z,3.65
2023-03-08T02:37:32.261Z,3.59
2023-03-08T02:40:20.375Z,3.57
2023-03-08T02:43:08.815Z,3.55
2023-03-08T02:45:59.370Z,3.50
2023-03-08T02:48:47.263Z,3.41
2023-03-08T02:51:35.041Z,3.18
2023-03-08T02:54:22.722Z,3.27
2023-03-08T02:57:12.909Z,3.29
2023-03-08T03:00:00.729Z,3.25
2023-03-08T03:02:49.529Z,3.26
2023-03-08T03:05:44.002Z,3.48
2023-03-08T03:08:35.405Z,3.30
2023-03-08T03:11:24.161Z,3.28
2023-03-08T03:14:13.225Z,3.16
2023-03-08T03:17:03.779Z,3.30
2023-03-08T03:19:51.436Z,3.18
2023-03-08T03:22:39.174Z,3.22
2023-03-08T03:25:28.437Z,3.23
2023-03-08T03:28:17.219Z,3.19
2023-03-08T03:31:14.391Z,3.37
2023-03-08T03:34:02.333Z,3.23
2023-03-08T03:36:50.308Z,3.18
2023-03-08T03:39:39.447Z,3.02
2023-03-08T03:42:30.017Z,3.04
2023-03-08T03:45:26.253Z,2.72
2023-03-08T03:48:17.372Z,3.12
2023-03-08T03:51:08.099Z,3.09
2023-03-08T03:53:58.981Z,3.11
2023-03-08T03:56:48.482Z,3.11
2023-03-08T03:59:38.135Z,3.03
2023-03-08T04:02:28.707Z,2.96
2023-03-08T04:05:19.771Z,2.91
2023-03-08T04:08:11.339Z,2.80
2023-03-08T04:11:01.801Z,2.90
2023-03-08T04:13:50.726Z,2.84
2023-03-08T04:16:42.518Z,2.60
2023-03-08T04:19:38.205Z,2.81
2023-03-08T04:22:27.938Z,2.80
2023-03-08T04:25:25.064Z,2.58
2023-03-08T04:28:18.464Z,2.68
2023-03-08T04:31:21.558Z,2.69
2023-03-08T04:34:09.496Z,2.55
2023-03-08T04:36:57.379Z,2.76
2023-03-08T04:39:47.123Z,2.81
2023-03-08T04:42:36.846Z,2.95
2023-03-08T04:45:28.194Z,2.82
2023-03-08T04:48:19.648Z,2.83
2023-03-08T04:51:09.564Z,2.88
2023-03-08T04:53:57.406Z,2.90
2023-03-08T04:56:46.723Z,3.06
2023-03-08T04:59:36.887Z,3.13
2023-03-08T05:02:29.550Z,3.27
2023-03-08T05:05:17.616Z,3.33
2023-03-08T05:08:06.119Z,3.45
2023-03-08T05:11:00.693Z,3.41
2023-03-08T05:13:54.272Z,3.63
2023-03-08T05:16:42.730Z,3.83
2023-03-08T05:19:31.423Z,3.85
2023-03-08T05:22:19.270Z,3.86
2023-03-08T05:25:11.210Z,3.51
2023-03-08T05:27:59.164Z,3.83
2023-03-08T05:30:50.165Z,3.93
2023-03-08T05:33:40.136Z,3.42
2023-03-08T05:36:28.073Z,3.89
2023-03-08T05:39:18.463Z,3.84
2023-03-08T05:42:20.062Z,3.86
2023-03-08T05:45:08.887Z,3.90
2023-03-08T05:47:59.531Z,4.05
2023-03-08T05:50:48.202Z,4.13
2023-03-08T05:53:36.762Z,4.44
2023-03-08T05:56:25.825Z,5.10
2023-03-08T05:59:40.565Z,6.27
2023-03-08T06:02:30.604Z,7.01
2023-03-08T06:05:21.043Z,7.97
2023-03-08T06:08:10.777Z,8.68
2023-03-08T06:10:59.447Z,9.07
2023-03-08T06:13:48.400Z,9.49
2023-03-08T06:16:36.859Z,10.73
2023-03-08T06:19:24.693Z,11.55
2023-03-08T06:22:17.210Z,11.78
2023-03-08T06:25:06.568Z,12.12
2023-03-08T06:27:56.671Z,12.41
2023-03-08T06:30:51.624Z,12.61
2023-03-08T06:33:35.239Z,13.12
2023-03-08T06:36:24.098Z,13.30
2023-03-08T06:39:11.873Z,12.25
2023-03-08T06:42:01.580Z,12.48
2023-03-08T06:44:49.622Z,13.43
2023-03-08T06:47:37.611Z,14.05
2023-03-08T06:50:25.867Z,13.86
2023-03-08T06:53:14.403Z,13.51
2023-03-08T06:56:28.322Z,13.32
2023-03-08T06:59:16.174Z,13.28
2023-03-08T07:02:03.869Z,13.52
2023-03-08T07:04:51.662Z,13.64
2023-03-08T07:07:40.302Z,13.64
2023-03-08T07:10:28.006Z,13.99
2023-03-08T07:13:15.669Z,14.28
2023-03-08T07:16:10.830Z,14.13
2023-03-08T07:18:58.558Z,13.96
2023-03-08T07:21:46.217Z,13.88
2023-03-08T07:24:33.931Z,14.09
2023-03-08T07:27:21.606Z,14.70
2023-03-08T07:30:10.781Z,15.05
2023-03-08T07:32:58.489Z,14.99
2023-03-08T07:35:46.429Z,15.28
2023-03-08T07:38:34.193Z,15.38
2023-03-08T07:41:22.083Z,15.73
2023-03-08T07:44:09.826Z,15.87
2023-03-08T07:46:57.486Z,15.90
2023-03-08T07:49:45.531Z,15.79
2023-03-08T07:52:33.290Z,15.99
2023-03-08T07:55:21.739Z,16.50
2023-03-08T07:58:09.441Z,16.16
2023-03-08T08:00:59.650Z,16.08
2023-03-08T08:03:47.551Z,16.12
2023-03-08T08:06:39.845Z,16.18
2023-03-08T08:09:27.573Z,16.00
2023-03-08T08:12:15.545Z,15.91
2023-03-08T08:15:03.378Z,16.02
2023-03-08T08:17:53.356Z,16.38
2023-03-08T08:20:41.091Z,16.95
2023-03-08T08:23:29.330Z,17.29
2023-03-08T08:26:22.247Z,18.19
2023-03-08T08:29:09.932Z,17.83
2023-03-08T08:31:58.089Z,17.72
2023-03-08T08:34:45.926Z,17.42
2023-03-08T08:37:34.569Z,17.27
2023-03-08T08:40:22.275Z,17.16
2023-03-08T08:43:09.943Z,16.87
2023-03-08T08:45:59.541Z,16.15
2023-03-08T08:48:47.280Z,16.36
2023-03-08T08:51:35.274Z,16.62
2023-03-08T08:54:23.037Z,16.60
2023-03-08T08:57:10.769Z,16.29
2023-03-08T08:59:58.431Z,16.39
2023-03-08T09:02:46.159Z,16.52
2023-03-08T09:05:37.899Z,16.38
2023-03-08T09:08:25.568Z,16.60
2023-03-08T09:11:13.365Z,16.76
2023-03-08T09:14:02.828Z,16.91
2023-03-08T09:16:50.775Z,17.05
2023-03-08T09:19:38.839Z,17.57
2023-03-08T09:22:27.380Z,17.82
2023-03-08T09:25:15.485Z,18.41
2023-03-08T09:28:03.112Z,18.52
2023-03-08T09:30:50.981Z,18.36
2023-03-08T09:33:43.045Z,18.22
2023-03-08T09:36:30.591Z,18.54
2023-03-08T09:39:18.314Z,18.60
2023-03-08T09:42:07.222Z,18.47
2023-03-08T09:45:04.184Z,18.24
2023-03-08T09:48:11.390Z,18.88
2023-03-08T09:51:05.264Z,18.88
2023-03-08T09:54:00.146Z,19.35
2023-03-08T09:56:51.021Z,19.01
2023-03-08T09:59:45.989Z,19.51
2023-03-08T10:03:03.056Z,19.64
2023-03-08T10:05:53.794Z,19.69
2023-03-08T10:08:52.992Z,19.72
2023-03-08T10:11:59.252Z,19.98
2023-03-08T10:14:52.137Z,19.75
2023-03-08T10:20:37.647Z,20.16
2023-03-08T10:23:26.714Z,19.41
2023-03-08T10:26:15.820Z,20.17
2023-03-08T10:29:04.083Z,20.35
2023-03-08T10:31:51.800Z,19.95
2023-03-08T10:34:39.443Z,19.75
2023-03-08T10:37:32.466Z,19.80
2023-03-08T10:40:23.053Z,20.49
2023-03-08T10:43:28.836Z,20.20
2023-03-08T10:46:22.235Z,20.09
2023-03-08T10:49:16.047Z,20.24
2023-03-08T10:52:03.876Z,19.91
2023-03-08T10:55:10.509Z,19.83
2023-03-08T10:58:00.030Z,19.95
2023-03-08T11:00:54.634Z,20.12
2023-03-08T11:03:42.222Z,20.34
2023-03-08T11:06:30.121Z,20.30
2023-03-08T11:09:28.277Z,19.44
2023-03-08T11:12:26.820Z,19.94
2023-03-08T11:15:19.497Z,20.56
2023-03-08T11:18:14.358Z,20.88
2023-03-08T11:21:14.047Z,20.84
2023-03-08T11:24:27.534Z,20.02
2023-03-08T11:27:24.228Z,20.43
2023-03-08T11:30:30.696Z,21.28
2023-03-08T11:33:45.732Z,21.44
2023-03-08T11:37:02.875Z,21.23
2023-03-08T11:39:59.788Z,20.71
2023-03-08T11:42:56.230Z,20.55
2023-03-08T11:46:24.889Z,20.63
2023-03-08T11:49:24.247Z,20.42
2023-03-08T11:52:35.872Z,20.54
2023-03-08T11:55:33.934Z,21.04
2023-03-08T11:58:31.074Z,20.92
2023-03-08T12:01:24.692Z,20.24
2023-03-08T12:04:37.056Z,19.81
2023-03-08T12:07:48.270Z,19.21
2023-03-08T12:11:03.256Z,19.11
2023-03-08T12:13:57.079Z,19.22
2023-03-08T12:17:25.290Z,20.11
2023-03-08T12:20:25.598Z,19.26
2023-03-08T12:23:34.239Z,18.90
2023-03-08T12:26:33.945Z,19.13
2023-03-08T12:29:47.935Z,19.27
2023-03-08T12:32:39.759Z,19.14
2023-03-08T12:35:29.507Z,19.15
2023-03-08T12:38:20.281Z,19.00
2023-03-08T12:41:23.022Z,18.62
2023-03-08T12:44:27.746Z,18.82
2023-03-08T12:47:15.379Z,18.68
2023-03-08T12:50:16.595Z,18.69
2023-03-08T12:53:22.267Z,18.92
2023-03-08T12:56:09.906Z,18.93
2023-03-08T12:58:59.120Z,19.19
2023-03-08T13:01:59.253Z,19.19
2023-03-08T13:04:47.016Z,18.99
2023-03-08T13:07:40.333Z,19.02
2023-03-08T13:10:36.030Z,18.66
2023-03-08T13:13:39.661Z,18.72
2023-03-08T13:16:40.100Z,18.78
2023-03-08T13:19:31.085Z,18.94
2023-03-08T13:22:25.842Z,18.95
2023-03-08T13:25:42.209Z,18.69
2023-03-08T13:28:47.337Z,18.99
2023-03-08T13:31:37.702Z,19.51
2023-03-08T13:34:29.002Z,19.49
2023-03-08T13:37:27.660Z,19.54
2023-03-08T13:40:19.369Z,19.06
2023-03-08T13:43:14.340Z,19.49
2023-03-08T13:46:11.181Z,19.26
2023-03-08T13:48:59.189Z,19.03
2023-03-08T13:51:49.310Z,19.15
2023-03-08T13:54:42.859Z,19.06
2023-03-08T13:57:34.424Z,18.92
2023-03-08T14:00:29.698Z,18.33
2023-03-08T14:03:21.254Z,18.41
2023-03-08T14:06:24.032Z,18.31
2023-03-08T14:09:11.698Z,18.18
2023-03-08T14:12:02.865Z,18.00
2023-03-08T14:14:54.898Z,18.13
2023-03-08T14:17:42.638Z,17.90
2023-03-08T14:20:30.871Z,18.06
2023-03-08T14:23:26.595Z,17.82
2023-03-08T14:26:35.180Z,17.88
2023-03-08T14:29:42.767Z,17.69
2023-03-08T14:32:32.645Z,17.76
2023-03-08T14:35:24.311Z,17.51
2023-03-08T14:38:33.874Z,17.38
2023-03-08T14:41:35.798Z,17.31
2023-03-08T14:44:27.282Z,17.29
2023-03-08T14:47:29.227Z,17.17
2023-03-08T14:50:24.541Z,17.14
2023-03-08T14:53:55.141Z,17.13
2023-03-08T14:56:42.936Z,17.14
2023-03-08T14:59:32.731Z,17.25
2023-03-08T15:02:20.386Z,17.44
2023-03-08T15:05:22.440Z,17.53
2023-03-08T15:08:14.895Z,17.55
2023-03-08T15:11:02.659Z,17.50
2023-03-08T15:13:53.075Z,17.34
2023-03-08T15:16:41.722Z,17.30
2023-03-08T15:19:29.546Z,17.25
2023-03-08T15:22:17.875Z,17.31
2023-03-08T15:25:13.733Z,17.08
2023-03-08T15:28:01.521Z,16.99
2023-03-08T15:30:53.392Z,17.06
2023-03-08T15:33:41.057Z,16.84
2023-03-08T15:36:34.981Z,16.78
2023-03-08T15:39:25.800Z,16.74
2023-03-08T15:42:13.868Z,16.38
2023-03-08T15:45:16.988Z,15.86
2023-03-08T15:48:07.514Z,16.15
2023-03-08T15:51:00.308Z,15.85
2023-03-08T15:53:49.284Z,15.64
2023-03-08T15:56:42.406Z,15.68
2023-03-08T15:59:31.317Z,15.41
2023-03-08T16:02:20.989Z,14.97
2023-03-08T16:05:10.600Z,14.98
2023-03-08T16:08:00.609Z,14.85
2023-03-08T16:10:48.326Z,14.70
2023-03-08T16:13:36.007Z,14.60
2023-03-08T16:16:42.243Z,14.43
2023-03-08T16:19:33.463Z,14.26
2023-03-08T16:22:21.216Z,14.05
2023-03-08T16:25:10.203Z,13.72
2023-03-08T16:27:57.829Z,13.51
2023-03-08T16:30:47.975Z,13.27
2023-03-08T16:33:39.720Z,13.10
2023-03-08T16:36:27.355Z,12.82
2023-03-08T16:39:15.366Z,12.81
2023-03-08T16:42:03.012Z,12.60
2023-03-08T16:44:55.246Z,12.46
2023-03-08T16:47:44.733Z,12.36
2023-03-08T16:50:32.489Z,12.31
2023-03-08T16:53:20.486Z,12.04
2023-03-08T16:56:25.711Z,11.97
2023-03-08T16:59:15.174Z,11.80
2023-03-08T17:02:02.805Z,11.65
2023-03-08T17:04:50.829Z,11.52
2023-03-08T17:07:38.788Z,11.31
2023-03-08T17:10:26.555Z,11.49
2023-03-08T17:13:14.288Z,11.30
2023-03-08T17:16:02.654Z,11.07
2023-03-08T17:18:51.515Z,11.16
2023-03-08T17:21:39.426Z,10.89
2023-03-08T17:24:28.426Z,11.05
2023-03-08T17:27:16.142Z,10.97
2023-03-08T17:30:04.515Z,10.79
2023-03-08T17:32:52.735Z,10.65
2023-03-08T17:35:42.522Z,10.60
2023-03-08T17:38:30.206Z,10.37
2023-03-08T17:41:17.971Z,10.41
2023-03-08T17:44:08.690Z,10.37
2023-03-08T17:46:56.369Z,10.35
2023-03-08T17:49:44.289Z,10.25
2023-03-08T17:52:33.281Z,10.12
2023-03-08T17:55:20.956Z,10.03
2023-03-08T17:58:08.712Z,10.07
2023-03-08T18:00:56.936Z,10.02
2023-03-08T18:03:45.180Z,10.08
2023-03-08T18:06:35.517Z,10.10
2023-03-08T18:09:24.316Z,9.99
2023-03-08T18:12:12.032Z,9.98
2023-03-08T18:15:01.501Z,9.92
2023-03-08T18:17:49.600Z,9.87
2023-03-08T18:20:37.284Z,9.86
2023-03-08T18:23:25.359Z,9.94
2023-03-08T18:26:15.316Z,9.62
2023-03-08T18:29:03.206Z,9.72
2023-03-08T18:31:53.351Z,9.69
2023-03-08T18:34:41.658Z,9.48
2023-03-08T18:37:31.265Z,9.34
2023-03-08T18:40:19.980Z,9.36
2023-03-08T18:43:07.663Z,9.20
2023-03-08T18:45:56.968Z,9.24
2023-03-08T18:48:47.684Z,9.08
2023-03-08T18:51:37.662Z,9.02
2023-03-08T18:54:25.549Z,8.91
2023-03-08T18:57:13.284Z,8.88
2023-03-08T19:00:01.074Z,8.85
2023-03-08T19:02:48.726Z,8.99
2023-03-08T19:05:36.536Z,8.93
2023-03-08T19:08:28.590Z,9.05
2023-03-08T19:11:24.745Z,9.09
2023-03-08T19:14:12.868Z,9.13
2023-03-08T19:17:01.160Z,8.97
2023-03-08T19:19:49.110Z,8.72
2023-03-08T19:22:36.964Z,8.91
2023-03-08T19:25:25.047Z,8.93
2023-03-08T19:28:12.635Z,8.58
2023-03-08T19:31:00.411Z,8.66
2023-03-08T19:33:50.103Z,8.55
2023-03-08T19:36:38.291Z,8.54
2023-03-08T19:39:28.472Z,8.49
2023-03-08T19:42:17.410Z,8.32
2023-03-08T19:45:05.562Z,8.45
2023-03-08T19:47:53.445Z,8.46
2023-03-08T19:50:47.255Z,8.48
2023-03-08T19:53:34.973Z,8.33
2023-03-08T19:56:24.028Z,8.36
2023-03-08T19:59:11.919Z,8.12
2023-03-08T20:01:59.757Z,7.89
2023-03-08T20:04:47.410Z,7.99
2023-03-08T20:07:35.091Z,7.76
2023-03-08T20:10:23.038Z,7.86
2023-03-08T20:13:10.766Z,7.65
2023-03-08T20:15:58.774Z,7.67
2023-03-08T20:18:49.385Z,7.53
2023-03-08T20:21:37.110Z,7.41
2023-03-08T20:24:24.826Z,7.73
2023-03-08T20:27:12.493Z,7.53
2023-03-08T20:30:00.341Z,7.39
2023-03-08T20:32:48.368Z,7.46
2023-03-08T20:35:36.088Z,7.12
2023-03-08T20:38:30.266Z,7.13
2023-03-08T20:41:20.689Z,6.92
2023-03-08T20:44:11.184Z,7.00
2023-03-08T20:46:58.909Z,6.99
2023-03-08T20:49:46.795Z,6.84
2023-03-08T20:53:03.207Z,6.94
2023-03-08T20:55:54.185Z,6.84
2023-03-08T20:58:42.407Z,6.71
2023-03-08T21:01:32.565Z,6.77
2023-03-08T21:04:20.486Z,6.78
2023-03-08T21:07:08.323Z,6.80
2023-03-08T21:09:56.023Z,6.61
2023-03-08T21:12:43.846Z,6.47
2023-03-08T21:15:31.484Z,6.42
2023-03-08T21:18:19.139Z,6.37
2023-03-08T21:21:06.897Z,6.36
2023-03-08T21:23:59.882Z,6.29
2023-03-08T21:26:47.652Z,6.08
2023-03-08T21:29:35.359Z,6.31
2023-03-08T21:32:23.467Z,6.44
2023-03-08T21:35:11.229Z,6.26
2023-03-08T21:37:59.330Z,6.28
2023-03-08T21:40:47.061Z,6.12
2023-03-08T21:43:34.914Z,6.12
2023-03-08T21:46:23.449Z,5.83
2023-03-08T21:49:17.513Z,6.02
2023-03-08T21:52:05.233Z,5.87
2023-03-08T21:54:52.909Z,5.81
2023-03-08T21:57:40.677Z,5.80
2023-03-08T22:00:28.395Z,5.54
2023-03-08T22:03:16.374Z,5.62
2023-03-08T22:06:04.357Z,5.63
2023-03-08T22:08:52.788Z,5.44
2023-03-08T22:11:40.934Z,5.56
2023-03-08T22:14:29.183Z,5.50
2023-03-08T22:17:17.231Z,5.52
2023-03-08T22:20:06.488Z,5.54
2023-03-08T22:22:54.563Z,5.45
2023-03-08T22:25:42.954Z,5.55
2023-03-08T22:28:38.444Z,5.52
2023-03-08T22:31:28.849Z,5.26
2023-03-08T22:34:16.647Z,5.46
2023-03-08T22:37:06.312Z,5.38
2023-03-08T22:39:54.229Z,5.21
2023-03-08T22:42:42.042Z,5.36
2023-03-08T22:45:30.031Z,5.35
2023-03-08T22:48:18.234Z,5.50
2023-03-08T22:51:11.117Z,5.40
2023-03-08T22:54:04.041Z,5.37
2023-03-08T22:56:51.652Z,5.37
2023-03-08T22:59:39.756Z,5.28
2023-03-08T23:02:28.739Z,5.37
2023-03-08T23:05:19.941Z,5.39
2023-03-08T23:08:07.615Z,5.36
2023-03-08T23:10:55.332Z,5.41
2023-03-08T23:13:43.760Z,5.34
2023-03-08T23:16:32.206Z,5.31
2023-03-08T23:19:21.788Z,5.16
2023-03-08T23:22:09.521Z,5.28
2023-03-08T23:24:57.182Z,5.41
2023-03-08T23:27:45.469Z,5.52
2023-03-08T23:30:33.298Z,5.46
2023-03-08T23:33:21.222Z,5.50
2023-03-08T23:36:11.726Z,5.56
2023-03-08T23:39:02.021Z,5.50
2023-03-08T23:41:49.803Z,5.53
2023-03-08T23:44:38.319Z,5.29
2023-03-08T23:47:26.249Z,5.37
2023-03-08T23:50:14.120Z,5.41
2023-03-08T23:53:01.722Z,5.39
2023-03-08T23:55:49.411Z,5.31
2023-03-08T23:58:37.058Z,5.29
